KHPN

Westchester County Airport

White Plains, New York, USA
KHPN 161124Z 1612/1712 05012G21KT 6SM -RA SCT012 OVC025 FM161300 05014G22KT 5SM -RA BR SCT008 OVC015 WS020/07045KT FM161500 04012G22KT 2SM RA BR SCT005 OVC008 WS020/07045KT FM161700 03013G21KT 1 1/2SM -RA BR BKN005 FM170100 36014G21KT 4SM -RA BR OVC010 FM170800 32009G17KT P6SM SCT010 BKN015 AMD NOT SKED
Issued Valid From Valid To
Dec-16 @ 11:24 UTC
(2 hours ago)
Dec-16 @ 12:00 UTC
(an hour ago)
Dec-17 @ 12:00 UTC
(in 23 hours)
Expired Click to View Dec-16 @ 12:00 to Dec-16 @ 13:00
KHPN 161124Z 1612/1712 05012G21KT 6SM -RA SCT012 OVC025
Wind Visibility Clouds Conditions
50° at 12 knots
 Gusting to 21 knots
6 miles
  • Scattered at 1,200' AGL
  • Overcast at 2,500' AGL
  • Light Rain
From Dec-16 @ 13:00 to Dec-16 @ 15:00
FM161300 05014G22KT 5SM -RA BR SCT008 OVC015 WS020/07045KT
Wind Visibility Clouds Conditions
50° at 14 knots
 Gusting to 22 knots
 Wind shear 2,000' AGL from 70° at 45 knots
5 miles
  • Scattered at 800' AGL
  • Overcast at 1,500' AGL
  • Light Rain
  • Mist
From Dec-16 @ 15:00 to Dec-16 @ 17:00
FM161500 04012G22KT 2SM RA BR SCT005 OVC008 WS020/07045KT
Wind Visibility Clouds Conditions
40° at 12 knots
 Gusting to 22 knots
 Wind shear 2,000' AGL from 70° at 45 knots
2 miles
  • Scattered at 500' AGL
  • Overcast at 800' AGL
  • Rain
  • Mist
From Dec-16 @ 17:00 to Dec-17 @ 01:00
FM161700 03013G21KT 1 1/2SM -RA BR BKN005
Wind Visibility Clouds Conditions
30° at 13 knots
 Gusting to 21 knots
1 1/2 miles
  • Broken at 500' AGL
  • Light Rain
  • Mist
From Dec-17 @ 01:00 to Dec-17 @ 08:00
FM170100 36014G21KT 4SM -RA BR OVC010
Wind Visibility Clouds Conditions
360° at 14 knots
 Gusting to 21 knots
4 miles
  • Overcast at 1,000' AGL
  • Light Rain
  • Mist
From Dec-17 @ 08:00 to Dec-17 @ 12:00
FM170800 32009G17KT P6SM SCT010 BKN015 AMD NOT SKED
Wind Visibility Clouds
320° at 9 knots
 Gusting to 17 knots
Greater than 6 miles
  • Scattered at 1,000' AGL
  • Broken at 1,500' AGL
KHPN 161124Z 1612/1712 05012G21KT 6SM -RA SCT012 OVC025 FM161300 05014G22KT 5SM -RA BR SCT008 OVC015 WS020/07045KT FM161500 04012G22KT 2SM RA BR SCT005 OVC008 WS020/07045KT FM161700 03013G21KT 1 1/2SM -RA BR BKN005 FM170100 36014G21KT 4SM -RA BR OVC010 FM170800 32009G17KT P6SM SCT010 BKN015 AMD NOT SKED
Issued Dec-16 @ 11:24 UTC
(2 hours ago)
Valid From Dec-16 @ 12:00 UTC
(an hour ago)
Valid To Dec-17 @ 12:00 UTC
(in 23 hours)
Dec-16 @ 12:00 - Dec-16 @ 13:00
Wind Visibility
50° at 12 knots
 Gusting to 21 knots
6 miles
Clouds
  • Scattered at 1,200' AGL
  • Overcast at 2,500' AGL
Conditions
  • Light Rain
From Dec-16 @ 13:00 - Dec-16 @ 15:00
Wind Visibility
50° at 14 knots
 Gusting to 22 knots
5 miles
Clouds
  • Scattered at 800' AGL
  • Overcast at 1,500' AGL
Conditions
  • Light Rain
  • Mist
From Dec-16 @ 15:00 - Dec-16 @ 17:00
Wind Visibility
40° at 12 knots
 Gusting to 22 knots
2 miles
Clouds
  • Scattered at 500' AGL
  • Overcast at 800' AGL
Conditions
  • Rain
  • Mist
From Dec-16 @ 17:00 - Dec-17 @ 01:00
Wind Visibility
30° at 13 knots
 Gusting to 21 knots
1 1/2 miles
Clouds
  • Broken at 500' AGL
Conditions
  • Light Rain
  • Mist
From Dec-17 @ 01:00 - Dec-17 @ 08:00
Wind Visibility
360° at 14 knots
 Gusting to 21 knots
4 miles
Clouds
  • Overcast at 1,000' AGL
Conditions
  • Light Rain
  • Mist
From Dec-17 @ 08:00 - Dec-17 @ 12:00
Wind Visibility
320° at 9 knots
 Gusting to 17 knots
Greater than 6 miles
Clouds
  • Scattered at 1,000' AGL
  • Broken at 1,500' AGL